Time;durP1;ratioP1;P1;durP2;ratioP2;P2;SDS_P1;SDS_P2;PMS_P1;PMS_P2;Temp;Humidity;BMP_temperature;BMP_pressure;BME280_temperature;BME280_humidity;BME280_pressure;Samples;Min_cycle;Max_cycle;Signal;HPM_P1;HPM_P2
2023/03/29 00:00:23;;;;;;;12.05;4.80;;;;;;;3.75;73.36;101557.88;4959937;28;20629;-71
2023/03/29 00:02:55;;;;;;;5.28;3.60;;;;;;;3.64;73.63;101560.69;4959574;28;20193;-72
2023/03/29 00:05:25;;;;;;;9.95;4.38;;;;;;;3.73;73.75;101557.16;4960633;28;20721;-71
2023/03/29 00:08:00;;;;;;;8.38;4.07;;;;;;;3.55;73.49;101555.34;4959507;28;20225;-71
2023/03/29 00:10:31;;;;;;;6.20;3.10;;;;;;;3.68;73.42;101551.38;4956092;28;20192;-71
2023/03/29 00:13:02;;;;;;;8.82;3.55;;;;;;;3.97;72.51;101553.22;4965445;28;20204;-71
2023/03/29 00:15:31;;;;;;;6.70;3.42;;;;;;;4.05;72.06;101556.00;4958942;28;20197;-72
2023/03/29 00:18:01;;;;;;;6.65;4.45;;;;;;;4.13;70.98;101550.75;4956748;28;20222;-72
2023/03/29 00:20:30;;;;;;;6.00;3.17;;;;;;;4.10;70.96;101548.38;4957800;28;20228;-72
2023/03/29 00:23:25;;;;;;;4.60;3.30;;;;;;;4.17;71.12;101546.81;4965623;28;20287;-71
2023/03/29 00:25:54;;;;;;;5.30;2.90;;;;;;;4.25;70.93;101545.13;4956521;28;20197;-71
2023/03/29 00:28:25;;;;;;;8.27;3.58;;;;;;;4.06;70.71;101539.81;4961653;28;20249;-72
2023/03/29 00:31:03;;;;;;;8.50;3.45;;;;;;;4.08;71.38;101543.16;4962595;28;20277;-72
2023/03/29 00:33:33;;;;;;;4.22;3.05;;;;;;;4.33;70.90;101542.53;4962947;28;20204;-71
2023/03/29 00:36:03;;;;;;;4.07;3.67;;;;;;;4.41;70.44;101536.44;4959448;28;20201;-71
2023/03/29 00:38:33;;;;;;;5.60;3.38;;;;;;;4.39;69.91;101541.13;4954839;28;20233;-71
2023/03/29 00:41:03;;;;;;;6.72;3.35;;;;;;;4.06;70.30;101545.16;5045043;23;20325;-72
2023/03/29 00:43:54;;;;;;;10.23;5.32;;;;;;;3.99;70.63;101543.19;4940157;29;20199;-74
2023/03/29 00:46:28;;;;;;;3.72;2.88;;;;;;;4.16;70.62;101529.06;4952218;29;20195;-76
2023/03/29 00:49:03;;;;;;;8.20;4.20;;;;;;;4.16;70.53;101523.72;4970781;28;20233;-72
2023/03/29 00:51:36;;;;;;;5.55;2.75;;;;;;;4.20;70.41;101517.06;4932536;29;20226;-73
2023/03/29 00:54:14;;;;;;;8.32;3.40;;;;;;;4.22;70.17;101521.28;4917644;29;20198;-70
2023/03/29 00:56:50;;;;;;;5.18;2.97;;;;;;;4.24;69.21;101516.63;4919729;29;20194;-74
2023/03/29 00:59:24;;;;;;;4.82;3.55;;;;;;;4.10;69.82;101516.25;4922092;29;20671;-73
2023/03/29 01:01:58;;;;;;;6.05;3.40;;;;;;;4.45;70.03;101512.88;4916296;29;20662;-73
2023/03/29 01:04:35;;;;;;;10.70;2.67;;;;;;;4.28;69.92;101514.50;4917073;29;20293;-76
2023/03/29 01:07:11;;;;;;;6.13;3.00;;;;;;;4.43;69.67;101498.78;4918204;29;20202;-73
2023/03/29 01:09:46;;;;;;;5.00;3.25;;;;;;;4.47;69.83;101495.66;4923821;29;20273;-73
2023/03/29 01:12:27;;;;;;;7.70;3.67;;;;;;;4.32;69.61;101491.75;4913766;29;20227;-73
2023/03/29 01:15:02;;;;;;;9.13;3.35;;;;;;;4.36;70.50;101493.16;4916152;29;20818;-73
2023/03/29 01:17:31;;;;;;;8.00;3.33;;;;;;;4.25;69.83;101488.00;4920139;29;20239;-75
2023/03/29 01:20:09;;;;;;;5.22;3.70;;;;;;;4.30;69.89;101485.72;4915349;29;20237;-76
2023/03/29 01:22:50;;;;;;;6.38;3.15;;;;;;;4.16;69.94;101481.69;4914835;29;20213;-73
2023/03/29 01:25:26;;;;;;;5.63;3.53;;;;;;;4.23;70.44;101476.56;4915578;29;20187;-76
2023/03/29 01:28:02;;;;;;;7.60;3.67;;;;;;;4.17;69.78;101471.78;4935230;29;20238;-74
2023/03/29 01:30:36;;;;;;;12.23;5.40;;;;;;;4.15;70.33;101468.44;4927349;29;20465;-73
2023/03/29 01:33:10;;;;;;;6.75;3.80;;;;;;;4.01;70.02;101463.56;4917519;29;20199;-74
2023/03/29 01:35:43;;;;;;;12.60;3.53;;;;;;;3.98;70.47;101463.81;4918732;29;20485;-74
2023/03/29 01:38:17;;;;;;;8.10;3.17;;;;;;;4.16;70.16;101456.75;4917665;29;20228;-74
2023/03/29 01:40:46;;;;;;;8.75;3.90;;;;;;;3.87;70.28;101449.63;4920438;29;20302;-75
2023/03/29 01:43:24;;;;;;;14.45;5.10;;;;;;;3.79;70.71;101446.00;4919532;29;20196;-71
2023/03/29 01:46:00;;;;;;;7.55;3.25;;;;;;;3.64;71.22;101447.44;4917465;29;20582;-75
2023/03/29 01:48:36;;;;;;;4.53;3.63;;;;;;;3.58;71.47;101435.50;4923177;29;20594;-73
2023/03/29 01:51:09;;;;;;;5.57;3.67;;;;;;;3.78;71.20;101431.75;4924821;29;20226;-74
2023/03/29 01:53:43;;;;;;;7.45;4.18;;;;;;;3.91;70.32;101428.78;4917137;29;20205;-73
2023/03/29 01:56:16;;;;;;;3.92;2.83;;;;;;;3.90;70.51;101419.91;4920649;29;20290;-72
2023/03/29 01:58:50;;;;;;;4.00;3.58;;;;;;;3.81;70.74;101419.94;4917267;29;20767;-72
2023/03/29 02:01:25;;;;;;;8.32;3.53;;;;;;;3.81;70.51;101412.75;4916818;29;20210;-72
2023/03/29 02:03:59;;;;;;;5.30;3.17;;;;;;;3.70;70.76;101420.94;4921888;29;20229;-70
2023/03/29 02:06:31;;;;;;;8.88;2.95;;;;;;;3.72;71.29;101408.28;4912992;29;20834;-72
2023/03/29 02:09:03;;;;;;;8.40;4.32;;;;;;;3.81;70.98;101407.41;4917869;29;20269;-73
2023/03/29 02:11:33;;;;;;;6.00;3.20;;;;;;;3.52;70.86;101406.63;4918876;29;20192;-72
2023/03/29 02:14:04;;;;;;;6.93;3.72;;;;;;;3.67;71.22;101404.34;4920147;29;20226;-74
2023/03/29 02:16:37;;;;;;;4.88;2.83;;;;;;;3.81;70.61;101404.72;4921671;29;20203;-73
2023/03/29 02:19:07;;;;;;;5.50;3.97;;;;;;;3.86;70.14;101399.75;4918433;29;20238;-70
2023/03/29 02:21:41;;;;;;;6.65;3.33;;;;;;;3.83;70.95;101391.16;4915638;29;20217;-75
2023/03/29 02:24:14;;;;;;;6.07;3.42;;;;;;;3.67;70.16;101389.13;4910951;29;20577;-73
2023/03/29 02:26:43;;;;;;;6.68;2.38;;;;;;;3.87;70.60;101388.03;4917780;29;20198;-71
2023/03/29 02:29:14;;;;;;;8.00;2.45;;;;;;;3.80;69.50;101381.59;4920095;29;20218;-72
2023/03/29 02:31:46;;;;;;;3.72;2.47;;;;;;;3.63;70.11;101368.97;4914616;29;20206;-76
2023/03/29 02:34:21;;;;;;;8.38;2.70;;;;;;;3.69;69.95;101376.41;4921466;29;20215;-75
2023/03/29 02:36:53;;;;;;;4.80;2.50;;;;;;;3.78;69.69;101372.00;4914208;29;20294;-72
2023/03/29 02:39:24;;;;;;;8.68;3.00;;;;;;;3.69;69.94;101360.34;4923106;29;20217;-72
2023/03/29 02:41:55;;;;;;;4.40;2.67;;;;;;;3.59;70.34;101358.69;4916155;29;20216;-74
2023/03/29 02:44:29;;;;;;;4.38;2.60;;;;;;;3.65;70.21;101358.97;4955297;28;20213;-75
2023/03/29 02:47:02;;;;;;;7.95;3.28;;;;;;;3.70;70.71;101356.69;4914085;29;20209;-72
2023/03/29 02:49:31;;;;;;;8.23;3.60;;;;;;;3.77;70.57;101346.25;4917230;29;20222;-72
2023/03/29 02:52:08;;;;;;;11.32;2.90;;;;;;;3.56;70.09;101349.16;4928794;29;20745;-74
2023/03/29 02:54:41;;;;;;;9.18;2.50;;;;;;;3.42;70.60;101346.94;4916248;29;20206;-74
2023/03/29 02:57:12;;;;;;;4.10;3.25;;;;;;;3.59;70.20;101346.16;4920318;29;20199;-73
2023/03/29 02:59:43;;;;;;;4.53;3.28;;;;;;;3.45;70.39;101341.28;4950113;28;20243;-73
2023/03/29 03:02:12;;;;;;;7.10;3.55;;;;;;;3.28;71.41;101345.56;4914227;29;20214;-71
2023/03/29 03:04:43;;;;;;;16.45;5.18;;;;;;;3.29;71.29;101330.38;4920615;29;20205;-71
2023/03/29 03:07:13;;;;;;;4.38;3.10;;;;;;;3.55;71.49;101334.06;4920600;29;20698;-74
2023/03/29 03:09:42;;;;;;;6.82;2.83;;;;;;;3.55;71.18;101336.75;4918904;29;20714;-71
2023/03/29 03:12:11;;;;;;;7.97;3.45;;;;;;;3.53;71.36;101329.88;4957616;28;20204;-74
2023/03/29 03:14:41;;;;;;;6.70;2.85;;;;;;;3.39;71.82;101325.81;4914518;29;20230;-73
2023/03/29 03:17:10;;;;;;;9.30;3.25;;;;;;;3.37;71.39;101322.44;4910865;29;20211;-73
2023/03/29 03:19:39;;;;;;;5.05;3.58;;;;;;;3.17;71.93;101316.31;4947780;28;20318;-73
2023/03/29 03:22:08;;;;;;;10.90;3.55;;;;;;;2.97;72.76;101317.31;4918429;29;20195;-73
2023/03/29 03:24:37;;;;;;;5.60;3.35;;;;;;;3.21;72.20;101316.84;4918916;29;20204;-73
2023/03/29 03:27:07;;;;;;;6.40;2.90;;;;;;;3.03;72.25;101322.94;4920878;29;20763;-76
2023/03/29 03:29:37;;;;;;;5.38;2.95;;;;;;;3.00;72.73;101315.19;4938661;29;20222;-73
2023/03/29 03:32:19;;;;;;;6.18;3.67;;;;;;;3.13;72.61;101308.72;4938772;29;20265;-74
2023/03/29 03:35:07;;;;;;;6.40;3.55;;;;;;;2.89;73.60;101318.03;4928490;29;20752;-73
2023/03/29 03:37:37;;;;;;;5.32;3.85;;;;;;;3.01;73.71;101310.69;4918915;29;20206;-75
2023/03/29 03:40:10;;;;;;;4.50;3.25;;;;;;;2.89;73.41;101307.34;4920694;29;20233;-74
2023/03/29 03:42:39;;;;;;;6.50;3.97;;;;;;;2.76;73.33;101309.44;4954548;28;20598;-74
2023/03/29 03:45:11;;;;;;;7.18;3.83;;;;;;;2.82;74.08;101303.53;4932969;29;20199;-71
2023/03/29 03:47:44;;;;;;;9.98;4.47;;;;;;;3.04;72.60;101295.22;4929994;29;20365;-72
2023/03/29 03:50:33;;;;;;;9.90;2.97;;;;;;;2.87;72.74;101301.28;4938800;29;20229;-74
2023/03/29 03:53:02;;;;;;;7.90;4.75;;;;;;;2.95;73.54;101306.75;4924533;29;20209;-72
2023/03/29 03:55:54;;;;;;;6.00;3.55;;;;;;;2.97;72.96;101304.78;4920345;29;20233;-73
2023/03/29 03:58:27;;;;;;;6.85;3.65;;;;;;;3.21;72.02;101307.00;4920724;29;20222;-73
2023/03/29 04:00:56;;;;;;;8.27;4.65;;;;;;;3.03;71.42;101304.22;4920702;29;20315;-71
2023/03/29 04:03:44;;;;;;;7.65;3.95;;;;;;;2.88;71.76;101299.47;4937555;29;20193;-73
2023/03/29 04:06:16;;;;;;;7.07;4.30;;;;;;;3.27;71.47;101300.22;4927580;29;20254;-71
2023/03/29 04:09:05;;;;;;;9.52;4.80;;;;;;;3.00;71.58;101304.50;4930100;29;20273;-73
2023/03/29 04:11:39;;;;;;;5.95;3.83;;;;;;;2.92;72.00;101307.06;4929639;29;20194;-73
2023/03/29 04:14:09;;;;;;;6.38;4.88;;;;;;;3.00;72.60;101296.47;4930023;29;20202;-77
2023/03/29 04:16:50;;;;;;;5.78;4.85;;;;;;;3.31;70.78;101306.97;4934894;29;20246;-74
2023/03/29 04:19:50;;;;;;;7.88;5.40;;;;;;;3.22;71.38;101297.16;4971021;28;20816;-77
2023/03/29 04:22:19;;;;;;;15.70;7.20;;;;;;;3.09;70.89;101292.13;4938566;29;20212;-73
2023/03/29 04:24:49;;;;;;;8.98;5.53;;;;;;;3.24;71.16;101289.84;4924974;29;20230;-72
2023/03/29 04:27:31;;;;;;;9.35;5.75;;;;;;;3.15;70.93;101291.53;4923074;29;20202;-73
2023/03/29 04:30:05;;;;;;;9.70;5.00;;;;;;;3.02;71.41;101289.16;4921295;29;20211;-72
2023/03/29 04:32:55;;;;;;;10.55;5.30;;;;;;;3.05;71.95;101290.69;4924749;29;20227;-73
2023/03/29 04:35:25;;;;;;;8.13;6.25;;;;;;;3.04;71.60;101281.84;4959439;28;20724;-73
2023/03/29 04:37:55;;;;;;;13.13;5.38;;;;;;;2.85;72.02;101299.75;4955593;28;20475;-73
2023/03/29 04:40:24;;;;;;;7.13;5.50;;;;;;;2.73;72.27;101288.38;4952625;28;20623;-75
2023/03/29 04:43:03;;;;;;;9.07;5.22;;;;;;;2.77;72.43;101283.56;4917805;29;20293;-73
2023/03/29 04:45:32;;;;;;;7.28;5.55;;;;;;;2.97;72.25;101280.72;4921395;29;20385;-73
2023/03/29 04:48:10;;;;;;;6.13;5.25;;;;;;;2.89;71.86;101277.94;4919138;29;20241;-72
2023/03/29 04:50:46;;;;;;;8.68;5.20;;;;;;;3.03;72.56;101282.00;4921638;29;20207;-71
2023/03/29 04:53:17;;;;;;;13.73;5.80;;;;;;;3.10;71.32;101280.41;4920832;29;20203;-73
2023/03/29 04:55:47;;;;;;;6.93;5.28;;;;;;;3.08;71.55;101285.06;4921026;29;20196;-73
2023/03/29 04:58:24;;;;;;;9.80;5.18;;;;;;;3.09;71.42;101275.22;4924550;29;20226;-74
2023/03/29 05:00:59;;;;;;;10.45;4.75;;;;;;;3.13;71.59;101276.63;4921288;29;20226;-73
2023/03/29 05:03:33;;;;;;;7.25;3.83;;;;;;;2.99;70.75;101278.78;4919802;29;20206;-76
2023/03/29 05:06:17;;;;;;;14.52;5.10;;;;;;;3.05;71.53;101272.81;4919420;29;20251;-74
2023/03/29 05:08:46;;;;;;;9.48;6.15;;;;;;;3.03;71.21;101269.47;4948849;28;20241;-75
2023/03/29 05:11:25;;;;;;;7.18;5.10;;;;;;;2.86;71.42;101272.03;4915718;29;20238;-75
2023/03/29 05:13:57;;;;;;;9.88;4.97;;;;;;;2.91;71.61;101267.94;4917532;29;20204;-76
2023/03/29 05:16:28;;;;;;;10.02;5.32;;;;;;;2.93;71.58;101265.13;4919449;29;20245;-72
2023/03/29 05:18:59;;;;;;;11.02;4.63;;;;;;;2.91;71.74;101261.75;4916052;29;20319;-74
2023/03/29 05:21:29;;;;;;;12.73;5.00;;;;;;;3.01;71.91;101258.06;4916852;29;20249;-75
2023/03/29 05:24:05;;;;;;;5.38;4.88;;;;;;;3.28;70.56;101253.78;4949852;28;20670;-73
2023/03/29 05:27:03;;;;;;;6.28;4.57;;;;;;;3.38;69.93;101260.78;4918814;29;20459;-75
2023/03/29 05:29:35;;;;;;;8.80;4.85;;;;;;;3.28;70.14;101261.78;4916219;29;20595;-75
2023/03/29 05:32:30;;;;;;;6.93;4.70;;;;;;;3.54;70.44;101252.09;4914388;28;20271;-72
2023/03/29 05:34:59;;;;;;;11.60;5.00;;;;;;;3.61;69.03;101250.53;4909497;29;20679;-74
2023/03/29 05:37:32;;;;;;;13.52;4.63;;;;;;;3.49;69.04;101251.69;4928610;29;20206;-73
2023/03/29 05:40:08;;;;;;;7.63;4.10;;;;;;;3.51;68.74;101252.41;4911952;29;20252;-73
2023/03/29 05:42:54;;;;;;;13.50;5.18;;;;;;;3.57;69.44;101245.63;4923201;29;20602;-72
2023/03/29 05:45:23;;;;;;;9.27;4.05;;;;;;;3.76;69.38;101243.69;4910377;29;20196;-72
2023/03/29 05:47:52;;;;;;;5.97;4.65;;;;;;;3.50;68.82;101243.53;4909717;29;20572;-72
2023/03/29 05:50:22;;;;;;;5.40;4.20;;;;;;;3.78;68.44;101246.19;4948072;28;20196;-74
2023/03/29 05:52:52;;;;;;;5.97;4.18;;;;;;;3.90;68.59;101239.66;4911115;29;20251;-71
2023/03/29 05:55:22;;;;;;;6.82;4.25;;;;;;;4.26;67.20;101243.22;4909317;29;20206;-73
2023/03/29 05:57:51;;;;;;;8.63;4.13;;;;;;;4.00;67.04;101239.59;4912179;29;20786;-71
2023/03/29 06:00:24;;;;;;;9.02;5.18;;;;;;;4.10;67.43;101235.00;4909185;29;20223;-73
2023/03/29 06:03:05;;;;;;;11.13;4.43;;;;;;;4.10;66.80;101243.91;4906001;29;20196;-73
2023/03/29 06:05:55;;;;;;;7.85;5.53;;;;;;;4.11;66.63;101242.06;4904022;29;20621;-72
2023/03/29 06:08:27;;;;;;;10.88;4.65;;;;;;;4.36;66.05;101235.91;4909282;29;20436;-75
2023/03/29 06:11:09;;;;;;;4.63;4.15;;;;;;;4.46;65.66;101242.03;4905015;29;20206;-72
2023/03/29 06:14:02;;;;;;;13.70;5.78;;;;;;;4.53;65.70;101242.28;4907855;28;20433;-71
2023/03/29 06:16:31;;;;;;;8.20;5.05;;;;;;;4.48;65.25;101248.09;4910134;29;20191;-72
2023/03/29 06:19:00;;;;;;;5.22;3.72;;;;;;;4.45;65.17;101236.84;4908687;29;20216;-72
2023/03/29 06:21:31;;;;;;;18.15;4.90;;;;;;;4.44;65.00;101244.06;4927556;29;20215;-72
2023/03/29 06:24:02;;;;;;;7.97;3.50;;;;;;;4.53;64.95;101240.44;4927385;29;21125;-71
2023/03/29 06:26:38;;;;;;;8.85;4.75;;;;;;;4.74;64.45;101229.41;4929843;29;20242;-77
2023/03/29 06:29:07;;;;;;;17.73;5.22;;;;;;;4.71;63.69;101241.25;4923931;29;20228;-75
2023/03/29 06:31:37;;;;;;;10.18;5.40;;;;;;;4.81;63.51;101230.44;4927856;29;20260;-72
2023/03/29 06:34:09;;;;;;;8.90;4.55;;;;;;;5.03;63.15;101234.44;4934484;28;20545;-73
2023/03/29 06:36:55;;;;;;;9.32;5.30;;;;;;;5.23;62.85;101227.84;4929226;29;20259;-72
2023/03/29 06:39:25;;;;;;;11.05;5.00;;;;;;;5.28;62.15;101230.88;4907399;29;20312;-75
2023/03/29 06:42:15;;;;;;;7.70;4.50;;;;;;;5.27;61.99;101231.91;4909225;29;20240;-75
2023/03/29 06:45:09;;;;;;;6.57;4.47;;;;;;;5.25;62.40;101233.91;4906793;29;20207;-74
2023/03/29 06:47:39;;;;;;;7.63;4.80;;;;;;;5.28;62.30;101225.53;4908129;29;20700;-73
2023/03/29 06:50:10;;;;;;;10.95;4.63;;;;;;;5.26;62.20;101224.84;4925882;29;20208;-74
2023/03/29 06:52:46;;;;;;;10.40;5.40;;;;;;;5.16;61.86;101224.13;4903855;29;20704;-71
2023/03/29 06:55:17;;;;;;;5.95;4.47;;;;;;;5.08;62.73;101224.91;4906496;29;20445;-73
2023/03/29 06:57:46;;;;;;;8.98;5.63;;;;;;;5.61;61.29;101216.63;4906550;29;20227;-73
2023/03/29 07:00:26;;;;;;;9.75;5.60;;;;;;;5.69;61.33;101224.72;4901515;29;20292;-72
2023/03/29 07:03:23;;;;;;;7.40;3.80;;;;;;;5.89;60.60;101221.78;4902411;29;20616;-72
2023/03/29 07:06:02;;;;;;;4.72;4.30;;;;;;;6.13;59.72;101219.16;4901191;29;20212;-72
2023/03/29 07:08:34;;;;;;;8.27;4.70;;;;;;;6.11;59.05;101226.53;4903273;29;20232;-71
2023/03/29 07:11:09;;;;;;;9.10;3.58;;;;;;;6.24;59.33;101221.53;4905563;29;20221;-72
2023/03/29 07:13:38;;;;;;;8.35;5.07;;;;;;;6.01;59.03;101223.97;4906679;29;20330;-73
2023/03/29 07:16:11;;;;;;;8.85;3.92;;;;;;;6.01;59.10;101225.81;4923292;29;20235;-74
2023/03/29 07:18:49;;;;;;;9.02;4.90;;;;;;;6.18;59.59;101227.56;4904654;29;20236;-71
2023/03/29 07:21:31;;;;;;;10.18;4.65;;;;;;;6.17;58.32;101228.56;4935055;28;20236;-71
2023/03/29 07:24:05;;;;;;;7.80;6.82;;;;;;;6.11;59.28;101229.22;4905814;29;20208;-73
2023/03/29 07:26:38;;;;;;;8.60;4.10;;;;;;;6.27;58.58;101223.03;4905745;29;20382;-73
2023/03/29 07:29:17;;;;;;;8.88;4.65;;;;;;;6.44;58.56;101217.47;4934758;28;20229;-72
2023/03/29 07:31:46;;;;;;;10.25;4.63;;;;;;;6.57;57.10;101210.78;4933107;28;20206;-73
2023/03/29 07:34:33;;;;;;;6.90;4.57;;;;;;;6.76;57.31;101215.81;4908031;29;20214;-76
2023/03/29 07:37:03;;;;;;;10.40;5.03;;;;;;;7.00;56.53;101215.78;4904109;29;20264;-71
2023/03/29 07:39:32;;;;;;;11.93;7.05;;;;;;;6.86;56.55;101211.94;4909690;29;20235;-78
2023/03/29 07:42:26;;;;;;;14.27;4.75;;;;;;;6.71;56.20;101207.41;4926521;29;20353;-75
2023/03/29 07:44:57;;;;;;;6.68;4.80;;;;;;;6.84;55.93;101215.78;4926186;29;20209;-77
2023/03/29 07:47:31;;;;;;;5.68;4.22;;;;;;;7.03;55.46;101212.72;4905724;29;20208;-70
2023/03/29 07:50:01;;;;;;;12.27;4.70;;;;;;;7.08;55.02;101207.69;4920770;29;20633;-72
2023/03/29 07:52:30;;;;;;;5.78;4.20;;;;;;;7.27;55.42;101201.06;4934865;28;20232;-75
2023/03/29 07:55:00;;;;;;;4.07;3.70;;;;;;;7.06;54.85;101207.03;4921861;29;20239;-73
2023/03/29 07:57:56;;;;;;;6.60;5.07;;;;;;;7.20;55.31;101214.38;4908490;29;20274;-70
2023/03/29 08:00:25;;;;;;;5.75;3.92;;;;;;;7.41;54.85;101206.56;4924150;29;20238;-72
2023/03/29 08:03:15;;;;;;;9.27;4.00;;;;;;;7.55;54.32;101214.94;4902789;29;20206;-70
2023/03/29 08:05:45;;;;;;;8.48;3.53;;;;;;;7.36;54.33;101208.94;4903101;29;20226;-72
2023/03/29 08:08:16;;;;;;;9.48;4.93;;;;;;;7.47;54.73;101204.19;4931235;28;20310;-74
2023/03/29 08:10:55;;;;;;;6.15;3.63;;;;;;;7.33;54.27;101211.16;4902742;29;20345;-72
2023/03/29 08:13:46;;;;;;;7.60;4.15;;;;;;;7.16;55.35;101207.69;4903820;29;20198;-72
2023/03/29 08:16:27;;;;;;;8.95;3.92;;;;;;;7.20;55.27;101202.78;4908459;29;20213;-76
2023/03/29 08:19:06;;;;;;;5.45;3.85;;;;;;;7.37;54.97;101205.22;4903217;29;20233;-70
2023/03/29 08:21:53;;;;;;;8.43;4.35;;;;;;;7.14;55.43;101215.06;4905219;29;20219;-71
2023/03/29 08:24:26;;;;;;;6.82;3.30;;;;;;;7.20;55.66;101202.78;4935822;28;20699;-72
2023/03/29 08:27:00;;;;;;;8.43;3.45;;;;;;;7.42;55.54;101202.88;4924518;29;20924;-73
2023/03/29 08:29:31;;;;;;;6.88;5.75;;;;;;;7.54;55.45;101202.50;4906451;29;20319;-71
2023/03/29 08:32:00;;;;;;;5.35;3.70;;;;;;;7.70;55.83;101205.09;4925362;29;20212;-72
2023/03/29 08:34:30;;;;;;;9.40;4.75;;;;;;;8.04;54.62;101196.66;4903743;29;20215;-71
2023/03/29 08:37:38;;;;;;;7.00;4.10;;;;;;;8.30;54.25;101202.56;4911397;29;20198;-73
2023/03/29 08:40:08;;;;;;;13.52;4.28;;;;;;;8.31;54.30;101193.47;4905230;29;20382;-72
2023/03/29 08:42:58;;;;;;;3.83;3.53;;;;;;;8.60;53.61;101187.34;4905235;29;20221;-73
2023/03/29 08:45:43;;;;;;;5.55;3.85;;;;;;;8.48;53.55;101178.81;4924926;29;20271;-73
2023/03/29 08:48:21;;;;;;;9.18;3.15;;;;;;;8.66;53.13;101178.50;4924094;29;20231;-74
2023/03/29 08:50:55;;;;;;;5.60;3.22;;;;;;;8.19;53.64;101174.13;4923197;29;20214;-72
2023/03/29 08:53:33;;;;;;;4.82;2.67;;;;;;;7.95;54.70;101168.91;4904055;29;20750;-74
2023/03/29 08:56:27;;;;;;;6.57;3.42;;;;;;;8.29;54.81;101177.47;4910528;29;20202;-74
2023/03/29 08:59:21;;;;;;;6.22;3.72;;;;;;;8.52;54.42;101168.53;4912981;29;20232;-72
2023/03/29 09:01:54;;;;;;;6.07;4.00;;;;;;;8.81;54.24;101167.75;4916972;29;20259;-73
2023/03/29 09:04:27;;;;;;;9.05;3.58;;;;;;;8.85;54.22;101175.28;4945766;28;20207;-74
2023/03/29 09:07:09;;;;;;;5.75;4.03;;;;;;;9.33;53.67;101165.81;4935927;29;20211;-75
2023/03/29 09:09:46;;;;;;;7.38;3.40;;;;;;;9.54;53.66;101167.72;4926588;29;20315;-70
2023/03/29 09:12:35;;;;;;;9.30;4.78;;;;;;;9.85;52.39;101160.22;4905922;29;20686;-71
2023/03/29 09:15:18;;;;;;;8.25;3.85;;;;;;;10.32;52.22;101153.41;4923293;29;20222;-72
2023/03/29 09:18:13;;;;;;;9.50;4.13;;;;;;;10.47;51.07;101143.38;4922124;29;20224;-72
2023/03/29 09:20:50;;;;;;;4.72;4.10;;;;;;;10.11;51.47;101150.72;4915783;29;20423;-75
2023/03/29 09:23:47;;;;;;;4.97;3.70;;;;;;;9.87;52.00;101158.16;4903556;29;20236;-74
2023/03/29 09:26:31;;;;;;;4.78;3.15;;;;;;;9.70;53.29;101156.69;4913753;29;20539;-74
2023/03/29 09:29:36;;;;;;;5.23;3.57;;;;;;;9.74;53.64;101155.28;4901744;29;20331;-72
2023/03/29 09:32:16;;;;;;;10.02;4.55;;;;;;;10.03;53.81;101155.19;4904262;29;20784;-74
2023/03/29 09:34:56;;;;;;;5.40;3.53;;;;;;;9.95;52.79;101159.91;4903914;29;20212;-75
2023/03/29 09:37:32;;;;;;;10.23;4.40;;;;;;;10.10;52.43;101154.44;4934066;28;20487;-72
2023/03/29 09:40:10;;;;;;;9.75;3.90;;;;;;;10.24;52.91;101140.03;4930685;28;20487;-74
2023/03/29 09:43:04;;;;;;;6.60;4.13;;;;;;;10.35;52.25;101136.81;4902267;29;20219;-73
2023/03/29 09:45:35;;;;;;;9.10;4.10;;;;;;;10.35;52.10;101140.38;4922696;29;20239;-72
2023/03/29 09:48:11;;;;;;;5.43;3.83;;;;;;;10.43;51.97;101142.09;4920949;29;20479;-74
2023/03/29 09:50:46;;;;;;;9.87;3.63;;;;;;;10.59;51.99;101139.09;4901641;29;20210;-73
2023/03/29 09:53:15;;;;;;;3.47;3.17;;;;;;;10.71;52.50;101142.09;4903583;29;20448;-74
2023/03/29 09:55:52;;;;;;;5.20;3.70;;;;;;;10.77;51.22;101134.03;4921906;29;20467;-77
2023/03/29 09:58:31;;;;;;;5.63;3.40;;;;;;;10.99;51.53;101128.56;4922940;29;20473;-77
2023/03/29 10:01:04;;;;;;;3.70;3.10;;;;;;;11.23;50.71;101126.16;4901231;29;20484;-75
2023/03/29 10:03:34;;;;;;;4.67;3.80;;;;;;;11.34;50.53;101124.75;4931223;28;20494;-74
2023/03/29 10:06:12;;;;;;;4.30;3.13;;;;;;;11.35;50.40;101123.72;4902008;29;20456;-74
2023/03/29 10:08:50;;;;;;;8.97;4.00;;;;;;;11.19;50.73;101121.34;4906711;29;20808;-75
2023/03/29 10:11:23;;;;;;;4.50;3.77;;;;;;;11.33;50.48;101117.66;4922792;29;20460;-75
2023/03/29 10:13:56;;;;;;;11.00;4.67;;;;;;;11.53;50.09;101115.88;4902615;29;20441;-75
2023/03/29 10:16:29;;;;;;;5.77;3.70;;;;;;;11.64;49.94;101107.16;4901898;29;20819;-74
2023/03/29 10:18:58;;;;;;;6.77;4.37;;;;;;;11.98;49.08;101099.97;4904016;29;20460;-73
2023/03/29 10:21:31;;;;;;;6.70;3.93;;;;;;;12.02;48.89;101095.81;4904042;29;20492;-75
2023/03/29 10:24:00;;;;;;;5.23;3.57;;;;;;;11.75;49.77;101100.34;4902171;29;20459;-74
2023/03/29 10:26:32;;;;;;;7.23;3.67;;;;;;;11.83;49.73;101093.91;4921971;29;20440;-74
2023/03/29 10:29:05;;;;;;;6.93;3.37;;;;;;;11.96;49.18;101088.47;4899876;29;21117;-74
2023/03/29 10:31:37;;;;;;;3.67;3.27;;;;;;;11.48;50.47;101093.97;4904891;29;20445;-73
2023/03/29 10:34:07;;;;;;;5.03;3.73;;;;;;;10.67;52.06;101087.53;4902696;29;20432;-72
2023/03/29 10:36:41;;;;;;;6.27;3.03;;;;;;;10.59;52.04;101084.97;4903371;29;20444;-70
2023/03/29 10:39:13;;;;;;;5.83;3.60;;;;;;;10.77;52.62;101092.59;4901184;29;20475;-72
2023/03/29 10:41:43;;;;;;;5.23;3.83;;;;;;;10.97;51.84;101085.41;4906323;29;20431;-71
2023/03/29 10:44:28;;;;;;;6.50;3.50;;;;;;;10.86;52.80;101081.41;4907177;29;20472;-75
2023/03/29 10:47:16;;;;;;;4.70;4.23;;;;;;;10.96;52.62;101080.19;4915656;29;20487;-76
2023/03/29 10:49:49;;;;;;;5.67;4.90;;;;;;;11.11;52.56;101072.78;4912784;29;20452;-74
2023/03/29 10:52:21;;;;;;;4.83;3.10;;;;;;;11.21;51.68;101067.81;4913923;29;21006;-75
2023/03/29 10:54:52;;;;;;;3.90;3.60;;;;;;;11.01;52.06;101077.72;4915533;29;20439;-72
2023/03/29 10:57:33;;;;;;;7.17;3.90;;;;;;;10.96;52.21;101067.50;4913579;29;20937;-68
2023/03/29 11:00:11;;;;;;;10.00;4.43;;;;;;;10.96;52.12;101063.94;4915026;29;20436;-70
2023/03/29 11:03:09;;;;;;;6.77;4.27;;;;;;;11.03;52.03;101060.25;4916082;29;20886;-70
2023/03/29 11:05:46;;;;;;;4.27;3.70;;;;;;;11.01;52.42;101056.91;4913563;29;20419;-70
2023/03/29 11:08:32;;;;;;;6.13;3.60;;;;;;;11.32;51.65;101064.53;4911286;29;20463;-71
2023/03/29 11:11:13;;;;;;;5.60;3.60;;;;;;;11.42;51.28;101058.75;4911592;29;20845;-70
2023/03/29 11:13:48;;;;;;;4.20;3.80;;;;;;;11.45;50.45;101063.75;4910759;29;20426;-69
2023/03/29 11:16:28;;;;;;;9.13;4.30;;;;;;;11.55;50.80;101062.31;4913337;29;20415;-69
2023/03/29 11:19:29;;;;;;;6.60;4.70;;;;;;;11.64;50.60;101052.97;4910583;29;20519;-69
2023/03/29 11:22:09;;;;;;;5.87;4.10;;;;;;;11.74;50.64;101055.31;4896067;29;20428;-70
2023/03/29 11:24:52;;;;;;;7.83;4.20;;;;;;;12.06;50.13;101056.38;4911694;29;20466;-69
2023/03/29 11:27:34;;;;;;;5.37;3.87;;;;;;;11.91;49.92;101062.00;4915142;29;20439;-70
2023/03/29 11:30:13;;;;;;;4.77;3.70;;;;;;;12.17;49.92;101051.16;4913430;29;20944;-71
2023/03/29 11:32:54;;;;;;;5.10;3.93;;;;;;;12.02;49.44;101050.53;4913362;29;20472;-71
2023/03/29 11:35:42;;;;;;;6.37;3.90;;;;;;;12.02;49.90;101038.84;4915955;29;20444;-69
2023/03/29 11:38:20;;;;;;;9.33;4.60;;;;;;;12.21;49.05;101043.44;5373070;23;20543;-71
2023/03/29 11:41:00;;;;;;;6.40;3.07;;;;;;;12.26;49.35;101030.06;4901918;29;20461;-70
2023/03/29 11:43:35;;;;;;;5.13;3.37;;;;;;;11.80;50.15;101031.97;4924565;29;20446;-70
2023/03/29 11:46:12;;;;;;;4.70;3.50;;;;;;;11.89;50.32;101036.13;4910305;29;20423;-70
2023/03/29 11:48:53;;;;;;;4.87;3.80;;;;;;;12.07;50.37;101031.75;4917738;29;20538;-69
2023/03/29 11:51:26;;;;;;;5.37;3.83;;;;;;;12.44;49.80;101026.75;4917550;29;20520;-69
2023/03/29 11:54:03;;;;;;;4.47;3.77;;;;;;;12.54;49.35;101025.22;4921754;29;20793;-67
2023/03/29 11:56:41;;;;;;;7.60;3.87;;;;;;;12.82;48.70;101030.41;4917660;29;20437;-69
2023/03/29 11:59:15;;;;;;;5.47;3.83;;;;;;;12.79;47.70;101024.56;4914121;29;20480;-70
2023/03/29 12:01:49;;;;;;;3.77;3.47;;;;;;;12.97;47.44;101022.81;4922552;29;20429;-69
2023/03/29 12:04:24;;;;;;;5.23;4.13;;;;;;;12.81;47.73;101022.47;4917104;29;20909;-68
2023/03/29 12:07:01;;;;;;;5.13;3.40;;;;;;;12.86;47.74;101025.38;4911696;29;20403;-69
2023/03/29 12:09:35;;;;;;;4.67;3.43;;;;;;;12.59;47.88;101003.72;4915099;29;20424;-69